createdAt,value
2023-03-18T00:05:42.406Z,42.50
2023-03-18T00:10:45.659Z,50.00
2023-03-18T00:15:52.044Z,54.50
2023-03-18T00:20:55.312Z,55.50
2023-03-18T00:26:00.978Z,57.00
2023-03-18T00:31:08.873Z,52.00
2023-03-18T00:36:14.014Z,58.33
2023-03-18T00:41:17.330Z,59.00
2023-03-18T00:46:29.552Z,60.00
2023-03-18T00:51:35.697Z,55.00
2023-03-18T00:56:39.878Z,62.67
2023-03-18T01:01:43.424Z,55.00
2023-03-18T01:06:46.740Z,36.50
2023-03-18T01:11:50.066Z,37.00
2023-03-18T01:16:53.482Z,33.00
2023-03-18T01:21:57.466Z,51.00
2023-03-18T01:27:01.362Z,46.50
2023-03-18T01:32:05.396Z,37.00
2023-03-18T01:37:08.840Z,22.00
2023-03-18T01:42:14.845Z,34.00
2023-03-18T01:47:18.817Z,33.00
2023-03-18T01:52:31.366Z,59.00
2023-03-18T01:57:36.074Z,57.00
2023-03-18T02:02:41.081Z,52.33
2023-03-18T02:07:44.480Z,58.00
2023-03-18T02:13:00.802Z,45.00
2023-03-18T02:18:13.486Z,38.00
2023-03-18T02:23:43.100Z,39.00
2023-03-18T02:28:47.505Z,44.00
2023-03-18T02:33:51.476Z,29.00
2023-03-18T02:38:56.607Z,40.00
2023-03-18T02:44:01.896Z,31.00
2023-03-18T02:49:09.404Z,34.00
2023-03-18T02:54:16.515Z,32.50
2023-03-18T02:59:21.748Z,39.00
2023-03-18T03:04:26.477Z,40.00
2023-03-18T03:09:31.269Z,41.00
2023-03-18T03:14:34.580Z,34.00
2023-03-18T03:19:39.064Z,36.00
2023-03-18T03:24:42.308Z,39.00
2023-03-18T03:29:45.775Z,56.50
2023-03-18T03:34:50.577Z,40.00
2023-03-18T03:39:54.320Z,39.50
2023-03-18T03:44:57.494Z,30.00
2023-03-18T03:50:02.345Z,35.50
2023-03-18T03:55:11.108Z,28.00
2023-03-18T04:00:18.807Z,50.50
2023-03-18T04:05:24.803Z,41.00
2023-03-18T04:10:28.743Z,37.00
2023-03-18T04:15:32.068Z,52.00
2023-03-18T04:20:39.793Z,53.00
2023-03-18T04:25:50.734Z,39.50
2023-03-18T04:30:54.028Z,36.00
2023-03-18T04:35:58.306Z,36.00
2023-03-18T04:41:02.096Z,36.00
2023-03-18T04:46:05.612Z,36.00
2023-03-18T04:51:10.055Z,37.00
2023-03-18T04:56:13.945Z,20.00
2023-03-18T05:01:26.254Z,37.00
2023-03-18T05:06:31.938Z,25.00
2023-03-18T05:11:40.372Z,37.00
2023-03-18T05:17:15.832Z,37.00
2023-03-18T05:22:22.274Z,39.33
2023-03-18T05:27:30.129Z,24.50
2023-03-18T05:32:41.056Z,54.50
2023-03-18T05:37:44.695Z,50.00
2023-03-18T05:42:55.948Z,42.00
2023-03-18T05:48:07.072Z,38.00
2023-03-18T05:53:16.948Z,51.50
2023-03-18T05:58:21.280Z,44.33
2023-03-18T06:03:27.734Z,49.00
2023-03-18T06:08:31.998Z,44.00
2023-03-18T06:13:37.733Z,49.00
2023-03-18T06:18:41.793Z,48.00
2023-03-18T06:23:45.413Z,47.50
2023-03-18T06:28:49.101Z,53.00
2023-03-18T06:33:53.590Z,52.00
2023-03-18T06:38:57.929Z,45.00
2023-03-18T06:44:02.074Z,52.00
2023-03-18T06:49:06.798Z,48.00
2023-03-18T06:54:12.673Z,52.00
2023-03-18T06:59:15.874Z,51.00
2023-03-18T07:04:19.422Z,52.50
2023-03-18T07:09:23.742Z,53.00
2023-03-18T07:14:29.565Z,56.00
2023-03-18T07:19:33.752Z,50.00
2023-03-18T07:24:37.769Z,51.00
2023-03-18T07:29:41.358Z,50.00
2023-03-18T07:34:44.788Z,48.50
2023-03-18T07:39:48.830Z,48.00
2023-03-18T07:44:52.540Z,50.00
2023-03-18T07:49:55.748Z,50.67
2023-03-18T07:54:59.017Z,52.50
2023-03-18T08:00:02.342Z,50.00
2023-03-18T08:05:16.295Z,48.00
2023-03-18T08:10:20.391Z,48.00
2023-03-18T08:15:24.391Z,39.50
2023-03-18T08:20:27.680Z,36.50
2023-03-18T08:25:31.218Z,39.00
2023-03-18T08:30:36.026Z,38.50
2023-03-18T08:35:41.904Z,36.00
2023-03-18T08:40:46.605Z,36.00
2023-03-18T08:45:54.178Z,32.00
2023-03-18T08:50:58.534Z,29.50
2023-03-18T08:56:03.412Z,33.00
2023-03-18T09:01:06.741Z,27.00
2023-03-18T09:06:10.040Z,30.00
2023-03-18T09:11:14.085Z,29.00
2023-03-18T09:16:18.543Z,27.00
2023-03-18T09:21:22.778Z,29.00
2023-03-18T09:26:26.081Z,28.00
2023-03-18T09:31:29.384Z,32.00
2023-03-18T09:36:32.678Z,30.50
2023-03-18T09:41:50.546Z,29.50
2023-03-18T09:47:02.372Z,30.50
2023-03-18T09:52:28.940Z,31.00
2023-03-18T09:57:42.648Z,26.00
2023-03-18T10:02:51.833Z,27.00
2023-03-18T10:07:58.768Z,29.00
2023-03-18T10:13:13.462Z,28.00
2023-03-18T10:18:26.827Z,27.67
2023-03-18T10:23:50.372Z,24.00
2023-03-18T10:29:38.646Z,25.00
2023-03-18T10:34:56.203Z,24.00
2023-03-18T10:40:00.246Z,22.50
2023-03-18T10:45:09.847Z,26.00
2023-03-18T10:50:28.840Z,21.50
2023-03-18T10:55:40.324Z,24.50
2023-03-18T11:00:45.126Z,24.00
2023-03-18T11:05:50.631Z,24.00
2023-03-18T11:10:53.851Z,24.00
2023-03-18T11:15:57.189Z,24.00
2023-03-18T11:21:01.544Z,27.00
2023-03-18T11:26:08.934Z,23.33
2023-03-18T11:31:18.608Z,24.00
2023-03-18T11:36:24.310Z,22.00
2023-03-18T11:41:30.351Z,19.33
2023-03-18T11:46:46.193Z,25.00
2023-03-18T11:52:31.274Z,21.00
2023-03-18T11:58:14.818Z,14.00
2023-03-18T12:03:21.278Z,23.00
2023-03-18T12:08:39.660Z,18.50
2023-03-18T12:14:01.272Z,27.00
2023-03-18T12:19:19.828Z,22.00
2023-03-18T12:24:59.111Z,23.00
2023-03-18T12:30:19.756Z,17.00
2023-03-18T12:35:26.438Z,19.00
2023-03-18T12:41:01.145Z,19.00
2023-03-18T12:46:24.821Z,22.33
2023-03-18T12:51:33.374Z,19.00
2023-03-18T12:56:41.313Z,16.50
2023-03-18T13:02:16.310Z,18.67
2023-03-18T13:07:26.638Z,15.00
2023-03-18T13:12:33.734Z,19.00
2023-03-18T13:17:40.338Z,13.00
2023-03-18T13:22:43.586Z,5.00
2023-03-18T13:28:00.382Z,13.00
2023-03-18T13:33:14.755Z,16.00
2023-03-18T13:38:39.210Z,12.00
2023-03-18T13:43:46.632Z,14.67
2023-03-18T13:48:59.058Z,13.00
2023-03-18T13:54:07.805Z,12.00
2023-03-18T13:59:35.587Z,17.00
2023-03-18T14:04:49.861Z,15.50
2023-03-18T14:09:57.136Z,13.00
2023-03-18T14:15:10.507Z,13.50
2023-03-18T14:20:23.113Z,6.00
2023-03-18T14:25:43.948Z,14.50
2023-03-18T14:30:50.850Z,13.00
2023-03-18T14:36:10.465Z,10.50
2023-03-18T14:41:36.253Z,14.00
2023-03-18T14:46:43.204Z,13.00
2023-03-18T14:51:47.321Z,13.50
2023-03-18T14:56:55.454Z,11.00
2023-03-18T15:01:58.829Z,13.00
2023-03-18T15:07:05.766Z,13.00
2023-03-18T15:12:24.469Z,12.00
2023-03-18T15:17:27.766Z,15.00
2023-03-18T15:22:32.986Z,12.67
2023-03-18T15:27:36.741Z,11.00
2023-03-18T15:32:46.380Z,16.50
2023-03-18T15:38:05.953Z,17.00
2023-03-18T15:43:09.027Z,12.00
2023-03-18T15:48:23.913Z,16.00
2023-03-18T15:53:48.003Z,21.00
2023-03-18T15:59:11.659Z,32.00
2023-03-18T16:04:18.983Z,18.00
2023-03-18T16:09:26.218Z,25.50
2023-03-18T16:14:37.981Z,24.50
2023-03-18T16:19:59.879Z,21.00
2023-03-18T16:25:09.595Z,26.00
2023-03-18T16:30:30.805Z,22.00
2023-03-18T16:35:34.701Z,22.00
2023-03-18T16:40:38.469Z,24.00
2023-03-18T16:45:42.384Z,25.00
2023-03-18T16:50:50.242Z,27.50
2023-03-18T16:56:21.698Z,22.50
2023-03-18T17:01:28.361Z,28.00
2023-03-18T17:06:32.041Z,30.00
2023-03-18T17:11:35.815Z,35.50
2023-03-18T17:16:39.538Z,40.00
2023-03-18T17:21:45.721Z,43.00
2023-03-18T17:26:52.894Z,40.50
2023-03-18T17:31:56.800Z,41.00
2023-03-18T17:37:02.387Z,48.00
2023-03-18T17:42:06.776Z,51.00
2023-03-18T17:47:10.799Z,48.50
2023-03-18T17:52:37.072Z,48.00
2023-03-18T17:57:40.372Z,54.00
2023-03-18T18:02:44.547Z,50.00
2023-03-18T18:07:49.175Z,50.00
2023-03-18T18:12:52.685Z,52.50
2023-03-18T18:18:00.208Z,54.00
2023-03-18T18:23:03.996Z,73.00
2023-03-18T18:28:21.653Z,101.25
2023-03-18T18:33:32.855Z,97.33
2023-03-18T18:38:36.782Z,79.00
2023-03-18T18:43:40.162Z,71.75
2023-03-18T18:48:47.079Z,78.00
2023-03-18T18:53:52.805Z,77.50
2023-03-18T18:58:57.051Z,80.00
2023-03-18T19:04:03.015Z,78.00
2023-03-18T19:09:25.121Z,80.00
2023-03-18T19:14:29.702Z,71.33
2023-03-18T19:19:43.202Z,88.50
2023-03-18T19:24:48.762Z,91.50
2023-03-18T19:29:54.406Z,81.33
2023-03-18T19:34:57.839Z,76.50
2023-03-18T19:40:04.689Z,82.00
2023-03-18T19:45:13.433Z,80.50
2023-03-18T19:50:19.775Z,78.00
2023-03-18T19:55:24.196Z,96.50
2023-03-18T20:00:28.139Z,95.67
2023-03-18T20:05:32.002Z,93.00
2023-03-18T20:10:35.699Z,96.50
2023-03-18T20:15:39.111Z,106.25
2023-03-18T20:20:45.605Z,107.00
2023-03-18T20:25:51.641Z,91.00
2023-03-18T20:31:20.420Z,102.00
2023-03-18T20:36:47.017Z,97.50
2023-03-18T20:47:39.083Z,90.00
2023-03-18T20:53:00.443Z,82.00
2023-03-18T20:58:32.517Z,95.00
2023-03-18T21:03:48.705Z,88.00
2023-03-18T21:09:01.100Z,87.00
2023-03-18T21:14:04.815Z,118.50
2023-03-18T21:19:40.736Z,116.33
2023-03-18T21:24:43.957Z,107.00
2023-03-18T21:30:03.238Z,102.00
2023-03-18T21:35:22.304Z,118.67
2023-03-18T21:40:26.397Z,106.00
2023-03-18T21:45:29.591Z,103.33
2023-03-18T21:50:32.913Z,99.00
2023-03-18T21:55:36.549Z,110.50
2023-03-18T22:00:39.768Z,103.67
2023-03-18T22:05:44.334Z,112.50
2023-03-18T22:10:50.687Z,103.33
2023-03-18T22:15:56.061Z,106.00
2023-03-18T22:20:59.698Z,90.67
2023-03-18T22:26:03.932Z,75.00
2023-03-18T22:31:17.904Z,108.00
2023-03-18T22:36:25.878Z,106.50
2023-03-18T22:41:32.162Z,111.00
2023-03-18T22:46:35.580Z,111.00
2023-03-18T22:51:42.039Z,107.50
2023-03-18T22:56:45.368Z,92.50
2023-03-18T23:01:49.884Z,108.67
2023-03-18T23:06:53.781Z,91.00
2023-03-18T23:11:57.365Z,103.00
2023-03-18T23:17:00.637Z,106.00
2023-03-18T23:22:05.050Z,94.50
2023-03-18T23:27:08.413Z,85.50
2023-03-18T23:32:12.118Z,80.50
2023-03-18T23:37:16.313Z,88.00
2023-03-18T23:42:21.273Z,61.00
2023-03-18T23:47:24.650Z,71.50
2023-03-18T23:52:27.839Z,63.00
2023-03-18T23:57:31.172Z,74.00
